C0sta Favolosa — ICPK — position and weather

sailwx.info

Track history (hours):
 
Tides and Currents Weather Stations Pressure Air Temp Water Temp Dewpoint Dewpoint Depression Visibility Wind Speed Wind Dir Waves Ship Positions

C0sta Favolosa

Last reported at 2017-Aug-18 09:15 UTC. Time now 2017-Aug-18 10:51 UTC.
Position N 54°11' E 012°06'.

Length 289 m; draft 8.3 m.

Type: Ship. MMSI: 247311100.

Date/timePositionNaut miles runAvg speedWind from/ knotsBaromVisibWave heightAir tempDewpointWater temp
2017-Aug-18 09:15N 54°11' E 012°06'0 0.0
2017-Aug-18 07:36N 54°11' E 012°06'0 0.2
2017-Aug-18 05:12N 54°10' E 012°06'1 3.4
2017-Aug-18 05:00N 54°10' E 012°06'6 6.5
2017-Aug-18 04:04N 54°15' E 012°02'1 7.7
2017-Aug-18 04:00N 54°15' E 012°01'714.1
2017-Aug-18 03:30N 54°19' E 011°51'918.0
2017-Aug-18 03:00N 54°25' E 011°39'918.3
2017-Aug-18 02:30N 54°29' E 011°26'918.1
2017-Aug-18 02:00N 54°34' E 011°12'917.7
2017-Aug-18 01:30N 54°39' E 010°59'815.6
2017-Aug-18 01:00N 54°45' E 010°52'815.9
2017-Aug-18 00:30N 54°53' E 010°52'816.2
2017-Aug-18 00:00N 54°59' E 011°01'816.6
2017-Aug-17 23:30N 55°08' E 011°02'714.5
2017-Aug-17 23:00N 55°15' E 011°05'612.0
2017-Aug-17 22:30N 55°20' E 011°02'611.5
2017-Aug-17 21:59N 55°26' E 010°58'612.7
2017-Aug-17 21:29N 55°31' E 010°51'611.8
2017-Aug-17 21:00N 55°36' E 010°48'611.4
2017-Aug-17 20:30N 55°42' E 010°47'611.3
2017-Aug-17 19:59N 55°48' E 010°48'611.2
2017-Aug-17 19:29N 55°53' E 010°53'511.6
2017-Aug-17 19:00N 55°57' E 010°60'510.4
2017-Aug-17 18:30N 56°02' E 010°59'713.6
2017-Aug-17 17:59N 56°03' E 010°47'813.3
2017-Aug-17 17:23N 56°05' E 010°33'1012.2
2017-Aug-17 16:35N 56°09' E 010°17'1 8.3
2017-Aug-17 16:29N 56°09' E 010°16'2 2.7
2017-Aug-17 15:56N 56°09' E 010°13'0 0.0
2017-Aug-17 13:23N 56°09' E 010°13'0 0.0
2017-Aug-17 12:59N 56°09' E 010°13'0 0.0
2017-Aug-17 12:29N 56°09' E 010°13'0 0.0
2017-Aug-17 11:59N 56°09' E 010°13'0 0.0
2017-Aug-17 11:23N 56°09' E 010°13'0 0.0
2017-Aug-17 10:56N 56°09' E 010°13'0 0.0
2017-Aug-17 10:26N 56°09' E 010°13'0 0.0
2017-Aug-17 09:56N 56°09' E 010°13'0 0.0
2017-Aug-17 06:47N 56°09' E 010°13'0 0.0
2017-Aug-17 06:27N 56°09' E 010°13'1 1.1
2017-Aug-17 05:50N 56°10' E 010°14'1 4.6
2017-Aug-17 05:30N 56°09' E 010°17'612.1
2017-Aug-17 05:00N 56°07' E 010°26'917.5
2017-Aug-17 04:30N 56°03' E 010°41'918.0
2017-Aug-17 04:00N 56°05' E 010°57'918.3
2017-Aug-17 03:30N 56°13' E 010°60'1018.4
2017-Aug-17 02:59N 56°23' E 011°05'917.5
2017-Aug-17 02:29N 56°29' E 011°15'918.9
2017-Aug-17 01:59N 56°35' E 011°29'1020.4
2017-Aug-17 01:30N 56°41' E 011°43'1018.7
2017-Aug-17 01:00N 56°49' E 011°51'1021.2
2017-Aug-17 00:31N 56°59' E 011°44'1020.8
2017-Aug-17 00:00N 57°09' E 011°36'1020.7
2017-Aug-16 23:31N 57°18' E 011°29'1020.4
2017-Aug-16 23:00N 57°28' E 011°22'1120.9
2017-Aug-16 22:30N 57°34' E 011°07'1021.0
2017-Aug-16 22:01N 57°42' E 010°55'1120.8
2017-Aug-16 21:30N 57°48' E 010°38'1121.5
2017-Aug-16 21:00N 57°49' E 010°19'1121.4
2017-Aug-16 20:30N 57°49' E 009°59'1121.7
2017-Aug-16 19:59N 57°51' E 009°37'1122.1
2017-Aug-16 19:29N 57°52' E 009°16'1122.1
2017-Aug-16 18:59N 57°53' E 008°56'1321.2
2017-Aug-16 18:20N 57°57' E 008°31'720.8
2017-Aug-16 18:00N 57°60' E 008°20'917.7
2017-Aug-16 17:30N 58°04' E 008°05'5 9.7
2017-Aug-16 17:00N 58°08' E 007°59'0 0.3
2017-Aug-16 16:30N 58°08' E 007°60'0 0.0
2017-Aug-16 16:00N 58°08' E 007°60'0 0.0
2017-Aug-16 15:30N 58°08' E 007°60'0 0.0
2017-Aug-16 15:00N 58°08' E 007°60'0 0.0
2017-Aug-16 14:30N 58°08' E 007°60'0 0.0
2017-Aug-16 14:00N 58°08' E 007°60'0 0.0
2017-Aug-16 13:30N 58°08' E 007°60'0 0.0
2017-Aug-16 13:00N 58°08' E 007°60'0 0.0
2017-Aug-16 12:30N 58°08' E 007°60'0 0.0
2017-Aug-16 11:59N 58°08' E 007°60'0 0.0
2017-Aug-16 11:29N 58°08' E 007°60'0 0.0
2017-Aug-16 10:59N 58°08' E 007°60'0 0.2
2017-Aug-16 10:29N 58°08' E 007°59'3 5.4
2017-Aug-16 10:00N 58°06' E 008°03'611.4
2017-Aug-16 09:30N 58°01' E 008°08'815.5
2017-Aug-16 09:00N 57°54' E 008°12'2213.8
2017-Aug-16 07:23N 57°42' E 007°37'717.7
2017-Aug-16 07:00N 57°42' E 007°24'918.1
2017-Aug-16 06:30N 57°42' E 007°07'917.9
2017-Aug-16 06:00N 57°43' E 006°51'918.0
2017-Aug-16 05:30N 57°44' E 006°34'918.7
2017-Aug-16 05:00N 57°49' E 006°20'1118.7
2017-Aug-16 04:26N 57°55' E 006°03'818.9
2017-Aug-16 04:00N 58°00' E 005°51'1319.3
2017-Aug-16 03:20N 58°09' E 005°34'819.1
2017-Aug-16 02:55N 58°14' E 005°22'818.3
2017-Aug-16 02:29N 58°20' E 005°13'918.4
2017-Aug-16 02:00N 58°28' E 005°06'918.0
2017-Aug-16 01:30N 58°36' E 004°58'918.3
2017-Aug-16 01:00N 58°45' E 004°51'918.5
2017-Aug-16 00:30N 58°53' E 004°44'918.3
2017-Aug-16 00:00N 59°02' E 004°36'917.9
2017-Aug-15 23:29N 59°10' E 004°29'5818.3
2017-Aug-15 20:19N 60°08' E 004°30'618.4
2017-Aug-15 20:00N 60°14' E 004°31'917.9
2017-Aug-15 19:30N 60°23' E 004°32'917.8
2017-Aug-15 19:00N 60°32' E 004°33'917.4
2017-Aug-15 18:30N 60°40' E 004°32'713.8
2017-Aug-15 18:00N 60°44' E 004°45'714.8
2017-Aug-15 17:30N 60°38' E 004°53'1019.4
2017-Aug-15 17:00N 60°28' E 005°00'714.5
2017-Aug-15 16:30N 60°23' E 005°10'5 9.1
2017-Aug-15 16:00N 60°24' E 005°19'0 0.1
2017-Aug-15 15:28N 60°24' E 005°19'0 0.0
2017-Aug-15 14:58N 60°24' E 005°19'0 0.0
2017-Aug-15 14:22N 60°24' E 005°19'0 0.0
2017-Aug-15 13:58N 60°24' E 005°19'0 0.0
2017-Aug-15 13:28N 60°24' E 005°19'0 0.0
2017-Aug-15 12:58N 60°24' E 005°19'0 0.0
2017-Aug-15 12:28N 60°24' E 005°19'0 0.0
2017-Aug-15 11:58N 60°24' E 005°19'0 0.0
2017-Aug-15 11:28N 60°24' E 005°19'0 0.0
2017-Aug-15 10:58N 60°24' E 005°19'0 0.0
2017-Aug-15 10:28N 60°24' E 005°19'0 0.0
2017-Aug-15 09:58N 60°24' E 005°19'0 0.0
2017-Aug-15 09:28N 60°24' E 005°19'0 0.0
2017-Aug-15 08:58N 60°24' E 005°19'0 0.0
2017-Aug-15 08:28N 60°24' E 005°19'0 0.0
2017-Aug-15 07:58N 60°24' E 005°19'0 0.0
2017-Aug-15 07:22N 60°24' E 005°19'0 0.0
2017-Aug-15 06:58N 60°24' E 005°19'0 0.0
2017-Aug-15 06:28N 60°24' E 005°19'0 0.0
2017-Aug-15 05:58N 60°24' E 005°19'0 0.2
2017-Aug-15 05:30N 60°24' E 005°19'3 6.6
2017-Aug-15 05:00N 60°24' E 005°12'611.1
2017-Aug-15 04:30N 60°26' E 005°02'916.9
2017-Aug-15 04:00N 60°34' E 004°55'816.8
2017-Aug-15 03:30N 60°41' E 004°48'816.7
2017-Aug-15 03:00N 60°46' E 004°34'918.1
2017-Aug-15 02:30N 60°53' E 004°24'918.0
2017-Aug-15 02:00N 61°02' E 004°17'4118.9
2017-Aug-14 23:49N 61°43' E 004°23'619.3
2017-Aug-14 23:30N 61°48' E 004°28'918.4
2017-Aug-14 22:59N 61°57' E 004°37'1019.4
2017-Aug-14 22:30N 62°05' E 004°46'1019.5
2017-Aug-14 22:00N 62°14' E 004°55'918.1
2017-Aug-14 21:29N 62°21' E 005°09'1019.6
2017-Aug-14 21:00N 62°27' E 005°25'918.1
2017-Aug-14 20:30N 62°30' E 005°43'918.5
2017-Aug-14 20:00N 62°26' E 006°01'713.7
2017-Aug-14 19:30N 62°23' E 006°14'1019.4
2017-Aug-14 19:00N 62°26' E 006°34'918.0
2017-Aug-14 18:30N 62°26' E 006°54'917.4
2017-Aug-14 18:00N 62°18' E 007°01'917.0
2017-Aug-14 17:30N 62°09' E 006°59'4 8.7
2017-Aug-14 17:00N 62°06' E 007°05'3 6.5
2017-Aug-14 16:30N 62°06' E 007°12'0 0.0
2017-Aug-14 16:00N 62°06' E 007°12'0 0.0
2017-Aug-14 15:30N 62°06' E 007°12'0 0.0
2017-Aug-14 13:07N 62°06' E 007°12'0 0.0
2017-Aug-14 13:00N 62°06' E 007°12'0 0.0
2017-Aug-14 12:30N 62°06' E 007°12'0 0.0
2017-Aug-14 12:00N 62°06' E 007°12'0 0.0
2017-Aug-14 11:28N 62°06' E 007°12'0 0.0
2017-Aug-14 10:58N 62°06' E 007°12'0 0.0
2017-Aug-14 10:30N 62°06' E 007°12'0 0.0
2017-Aug-14 09:58N 62°06' E 007°12'0 0.0
2017-Aug-14 09:28N 62°06' E 007°12'0 0.0
2017-Aug-14 08:58N 62°06' E 007°12'0 0.1
2017-Aug-14 08:30N 62°06' E 007°12'2 3.0
2017-Aug-14 08:00N 62°07' E 007°09'611.0
2017-Aug-14 07:30N 62°06' E 006°58'3 1.5
2017-Aug-14 05:41N 62°05' E 006°53'1 1.5
2017-Aug-14 05:18N 62°06' E 006°53'2 7.4
2017-Aug-14 05:00N 62°07' E 006°57'713.2
2017-Aug-14 04:30N 62°13' E 007°01'612.4
2017-Aug-14 04:00N 62°19' E 006°57'713.2
2017-Aug-14 03:30N 62°26' E 006°54'713.2
2017-Aug-14 03:00N 62°27' E 006°40'713.5
2017-Aug-14 02:30N 62°25' E 006°27'713.9
2017-Aug-14 02:00N 62°23' E 006°13'713.3
2017-Aug-14 01:30N 62°26' E 005°60'612.7
2017-Aug-14 00:59N 62°29' E 005°47'816.1
2017-Aug-14 00:30N 62°29' E 005°30'918.5
2017-Aug-14 00:00N 62°23' E 005°15'918.5
2017-Aug-13 23:30N 62°17' E 004°59'918.4
2017-Aug-13 23:00N 62°11' E 004°43'20217.6
2017-Aug-13 11:30N 58°50' E 004°32'918.4
2017-Aug-13 11:00N 58°43' E 004°44'1018.2
2017-Aug-13 10:26N 58°36' E 004°58'818.8
2017-Aug-13 10:00N 58°30' E 005°08'1020.4
2017-Aug-13 09:30N 58°23' E 005°22'1020.7
2017-Aug-13 09:00N 58°15' E 005°36'1020.9
2017-Aug-13 08:30N 58°08' E 005°51'1020.7
2017-Aug-13 08:00N 58°01' E 006°05'1020.5
2017-Aug-13 07:30N 57°54' E 006°20'1020.3
2017-Aug-13 07:00N 57°48' E 006°35'1020.6
2017-Aug-13 06:30N 57°47' E 006°54'1020.6
2017-Aug-13 06:00N 57°46' E 007°14'1020.6
2017-Aug-13 05:30N 57°46' E 007°33'1121.0
2017-Aug-13 05:00N 57°46' E 007°53'2620.1
2017-Aug-13 03:41N 57°47' E 008°43'419.5
2017-Aug-13 03:30N 57°47' E 008°49'1019.3
2017-Aug-13 03:00N 57°47' E 009°07'1019.2
2017-Aug-13 02:30N 57°48' E 009°25'1019.2
2017-Aug-13 01:59N 57°49' E 009°44'1419.5
2017-Aug-13 01:17N 57°50' E 010°09'518.8
2017-Aug-13 01:00N 57°50' E 010°19'917.2
2017-Aug-13 00:30N 57°50' E 010°36'816.1
2017-Aug-12 23:59N 57°48' E 010°50'917.5
2017-Aug-12 23:30N 57°42' E 011°02'917.7
2017-Aug-12 22:59N 57°36' E 011°14'918.1
2017-Aug-12 22:30N 57°29' E 011°26'918.2
2017-Aug-12 22:00N 57°21' E 011°32'918.4
2017-Aug-12 21:30N 57°12' E 011°38'918.1
2017-Aug-12 20:58N 57°03' E 011°43'5017.8
2017-Aug-12 18:09N 56°16' E 012°14'318.3
2017-Aug-12 18:00N 56°14' E 012°18'918.3
2017-Aug-12 17:30N 56°08' E 012°30'816.5
2017-Aug-12 17:00N 56°02' E 012°40'816.9
2017-Aug-12 16:30N 55°54' E 012°44'917.2
2017-Aug-12 16:00N 55°45' E 012°41'3 6.4
2017-Aug-12 15:29N 55°43' E 012°38'0 0.0
2017-Aug-12 14:59N 55°43' E 012°38'0 0.0
2017-Aug-12 14:28N 55°43' E 012°38'0 0.0
2017-Aug-12 14:00N 55°43' E 012°38'0 0.0
2017-Aug-12 13:29N 55°43' E 012°38'0 0.0
2017-Aug-12 12:58N 55°43' E 012°38'0 0.0
2017-Aug-12 12:28N 55°43' E 012°38'0 0.0
2017-Aug-12 11:57N 55°43' E 012°38'0 0.0
2017-Aug-12 11:30N 55°43' E 012°38'0 0.0
2017-Aug-12 10:58N 55°43' E 012°38'0 0.0
2017-Aug-12 10:30N 55°43' E 012°38'0 0.0
2017-Aug-12 10:00N 55°43' E 012°38'0 0.0
2017-Aug-12 09:30N 55°43' E 012°38'0 0.0
2017-Aug-12 09:00N 55°43' E 012°38'0 0.0
2017-Aug-12 08:30N 55°43' E 012°38'0 0.0
2017-Aug-12 08:00N 55°43' E 012°38'0 0.0
2017-Aug-12 07:30N 55°43' E 012°38'0 0.0
2017-Aug-12 07:00N 55°43' E 012°38'0 0.0
2017-Aug-12 06:30N 55°43' E 012°38'0 0.0
2017-Aug-12 06:00N 55°43' E 012°38'0 0.3
2017-Aug-12 05:31N 55°43' E 012°38'4 7.1
2017-Aug-12 05:00N 55°46' E 012°42'815.2
2017-Aug-12 04:30N 55°53' E 012°39'917.3
2017-Aug-12 04:00N 56°02' E 012°39'816.8
2017-Aug-12 03:30N 56°08' E 012°29'1418.4
2017-Aug-12 02:45N 56°13' E 012°05'1020.4
2017-Aug-12 02:15N 56°09' E 011°48'620.6
2017-Aug-12 01:57N 56°08' E 011°37'920.5
2017-Aug-12 01:29N 56°09' E 011°20'917.5
2017-Aug-12 00:58N 56°04' E 011°07'1020.0
2017-Aug-12 00:29N 55°55' E 010°58'1019.8
2017-Aug-11 23:59N 55°47' E 010°49'1020.4
2017-Aug-11 23:29N 55°37' E 010°48'1020.8
2017-Aug-11 23:00N 55°28' E 010°56'1019.5
2017-Aug-11 22:30N 55°19' E 011°03'918.5
2017-Aug-11 22:00N 55°10' E 011°03'1020.0
2017-Aug-11 21:30N 54°60' E 011°02'1019.3
2017-Aug-11 21:00N 54°51' E 010°53'918.8
2017-Aug-11 20:30N 54°42' E 010°54'1020.0
2017-Aug-11 20:00N 54°37' E 011°09'1020.8
2017-Aug-11 19:30N 54°32' E 011°25'1020.2
2017-Aug-11 19:00N 54°28' E 011°40'1020.1
2017-Aug-11 18:30N 54°23' E 011°56'1016.3
2017-Aug-11 17:53N 54°14' E 012°04'4 1.4
2017-Aug-11 15:11N 54°11' E 012°06'0 0.0
2017-Aug-11 14:59N 54°11' E 012°06'0 0.0
2017-Aug-11 14:26N 54°11' E 012°06'0 0.0
2017-Aug-11 13:20N 54°11' E 012°06'0 0.0
2017-Aug-11 12:17N 54°11' E 012°06'0 0.0
2017-Aug-11 11:41N 54°11' E 012°06'0 0.0
2017-Aug-11 11:29N 54°11' E 012°06'0 0.0
2017-Aug-11 08:14N 54°11' E 012°06'0 0.0
2017-Aug-11 07:53N 54°11' E 012°06'0 0.0
2017-Aug-11 07:23N 54°11' E 012°06'0 0.0
2017-Aug-11 06:59N 54°11' E 012°06'0 0.0
2017-Aug-11 06:20N 54°11' E 012°06'0 0.0
2017-Aug-11 05:59N 54°11' E 012°06'0 0.0
2017-Aug-11 05:30N 54°11' E 012°06'1 2.1
2017-Aug-11 05:00N 54°10' E 012°06'4 5.8
2017-Aug-11 04:23N 54°13' E 012°04'3 7.7
2017-Aug-11 04:00N 54°15' E 012°02'611.0
2017-Aug-11 03:30N 54°19' E 011°55'917.9
2017-Aug-11 03:00N 54°25' E 011°43'918.4
2017-Aug-11 02:30N 54°29' E 011°29'918.2
2017-Aug-11 02:00N 54°33' E 011°15'918.2
2017-Aug-11 01:30N 54°38' E 011°02'815.2
2017-Aug-11 01:00N 54°43' E 010°52'713.4
2017-Aug-11 00:31N 54°50' E 010°51'612.9
2017-Aug-11 00:01N 54°56' E 010°54'612.8
2017-Aug-10 23:30N 55°01' E 011°01'612.8
2017-Aug-10 23:00N 55°07' E 011°02'612.3
2017-Aug-10 22:31N 55°13' E 011°06'713.2
2017-Aug-10 22:00N 55°19' E 011°02'612.6
2017-Aug-10 21:31N 55°25' E 010°58'713.3
2017-Aug-10 21:00N 55°31' E 010°52'612.7
2017-Aug-10 20:30N 55°37' E 010°47'612.5
2017-Aug-10 19:59N 55°43' E 010°47'713.2
2017-Aug-10 19:29N 55°50' E 010°49'612.9
2017-Aug-10 19:00N 55°55' E 010°56'612.7
2017-Aug-10 18:30N 55°60' E 011°02'612.8
2017-Aug-10 17:59N 56°03' E 010°52'714.1
2017-Aug-10 17:30N 56°03' E 010°40'714.0
2017-Aug-10 17:00N 56°06' E 010°28'812.2
2017-Aug-10 16:19N 56°10' E 010°15'1 2.5
2017-Aug-10 15:56N 56°09' E 010°13'0 0.0
2017-Aug-10 15:29N 56°09' E 010°13'0 0.0
2017-Aug-10 14:44N 56°09' E 010°13'0 0.0
2017-Aug-10 14:29N 56°09' E 010°13'0 0.0
2017-Aug-10 13:38N 56°09' E 010°13'0 0.0
2017-Aug-10 13:14N 56°09' E 010°13'0 0.0
2017-Aug-10 12:56N 56°09' E 010°13'0 0.0
2017-Aug-10 12:29N 56°09' E 010°13'0 0.0
2017-Aug-10 11:59N 56°09' E 010°13'0 0.0
2017-Aug-10 11:17N 56°09' E 010°13'0 0.0
2017-Aug-10 10:53N 56°09' E 010°13'0 0.0
2017-Aug-10 08:23N 56°09' E 010°13'0 0.0
2017-Aug-10 07:50N 56°09' E 010°13'0 0.0
2017-Aug-10 07:29N 56°09' E 010°13'0 0.0
2017-Aug-10 06:39N 56°09' E 010°13'0 0.1
2017-Aug-10 06:28N 56°09' E 010°13'1 1.5
2017-Aug-10 06:00N 56°10' E 010°14'3 5.8
2017-Aug-10 05:30N 56°08' E 010°19'816.7
2017-Aug-10 05:00N 56°05' E 010°32'1019.0
2017-Aug-10 04:29N 56°03' E 010°50'816.9
2017-Aug-10 04:00N 56°09' E 010°59'5217.3
2017-Aug-10 01:01N 56°54' E 011°47'420.8
2017-Aug-10 00:50N 56°57' E 011°44'920.5
2017-Aug-10 00:25N 57°05' E 011°38'820.0
2017-Aug-10 00:00N 57°13' E 011°33'1020.0
2017-Aug-09 23:30N 57°22' E 011°27'1019.8
2017-Aug-09 23:00N 57°31' E 011°18'1020.6
2017-Aug-09 22:30N 57°39' E 011°05'1020.4
2017-Aug-09 22:00N 57°45' E 010°50'1020.0
2017-Aug-09 21:31N 57°50' E 010°34'1020.8
2017-Aug-09 21:00N 57°50' E 010°14'5521.0
2017-Aug-09 18:24N 57°57' E 008°32'820.2
2017-Aug-09 18:00N 57°60' E 008°18'917.4
2017-Aug-09 17:30N 58°05' E 008°04'5 8.8
2017-Aug-09 17:00N 58°08' E 007°60'0 0.1
2017-Aug-09 16:28N 58°08' E 007°60'0 0.0
2017-Aug-09 16:00N 58°08' E 007°60'0 0.0
2017-Aug-09 15:30N 58°08' E 007°60'0 0.0
2017-Aug-09 15:00N 58°08' E 007°60'0 0.0
2017-Aug-09 14:30N 58°08' E 007°60'0 0.0
2017-Aug-09 14:00N 58°08' E 007°60'0 0.0
2017-Aug-09 13:30N 58°08' E 007°60'0 0.0
2017-Aug-09 13:00N 58°08' E 007°60'0 0.0
2017-Aug-09 12:30N 58°08' E 007°60'0 0.0
2017-Aug-09 12:00N 58°08' E 007°60'0 0.0
2017-Aug-09 11:30N 58°08' E 007°60'0 0.0
2017-Aug-09 11:00N 58°08' E 007°60'0 0.0
2017-Aug-09 10:30N 58°08' E 007°60'1 2.3
2017-Aug-09 10:00N 58°08' E 008°01'611.6
2017-Aug-09 09:30N 58°03' E 008°08'612.4
2017-Aug-09 09:00N 57°57' E 008°11'816.2
2017-Aug-09 08:30N 57°49' E 008°06'1513.7
2017-Aug-09 07:26N 57°42' E 007°42'715.6
2017-Aug-09 07:00N 57°42' E 007°30'816.7
2017-Aug-09 06:30N 57°43' E 007°14'918.1
2017-Aug-09 06:00N 57°43' E 006°57'918.1
2017-Aug-09 05:29N 57°43' E 006°40'918.6
2017-Aug-09 05:00N 57°48' E 006°25'919.0
2017-Aug-09 04:30N 57°53' E 006°10'1018.8
2017-Aug-09 04:00N 57°59' E 005°56'918.9
2017-Aug-09 03:30N 58°05' E 005°43'1018.9
2017-Aug-09 03:00N 58°12' E 005°30'919.1
2017-Aug-09 02:30N 58°18' E 005°17'1019.6
2017-Aug-09 02:00N 58°26' E 005°07'1020.2
2017-Aug-09 01:30N 58°35' E 004°59'1019.7
2017-Aug-09 01:00N 58°44' E 004°51'1019.6
2017-Aug-09 00:30N 58°53' E 004°44'1019.4
2017-Aug-09 00:00N 59°02' E 004°36'919.0
2017-Aug-08 23:30N 59°11' E 004°28'5818.9
2017-Aug-08 20:27N 60°09' E 004°30'918.6
2017-Aug-08 20:00N 60°17' E 004°31'918.1
2017-Aug-08 19:30N 60°26' E 004°32'918.0
2017-Aug-08 18:59N 60°35' E 004°32'917.2
2017-Aug-08 18:30N 60°44' E 004°34'714.5
2017-Aug-08 17:59N 60°42' E 004°48'815.9
2017-Aug-08 17:30N 60°35' E 004°55'918.9
2017-Aug-08 17:00N 60°26' E 005°02'611.4
2017-Aug-08 16:30N 60°23' E 005°12'4 7.5
2017-Aug-08 16:00N 60°24' E 005°19'0 0.1
2017-Aug-08 15:31N 60°24' E 005°19'0 0.0
2017-Aug-08 15:01N 60°24' E 005°19'0 0.0
2017-Aug-08 14:31N 60°24' E 005°19'0 0.0
2017-Aug-08 14:01N 60°24' E 005°19'0 0.0
2017-Aug-08 13:31N 60°24' E 005°19'0 0.0
2017-Aug-08 13:01N 60°24' E 005°19'0 0.0
2017-Aug-08 12:30N 60°24' E 005°19'0 0.0
2017-Aug-08 12:01N 60°24' E 005°19'0 0.0
2017-Aug-08 11:30N 60°24' E 005°19'0 0.0
2017-Aug-08 10:59N 60°24' E 005°19'0 0.0
2017-Aug-08 10:29N 60°24' E 005°19'0 0.0
2017-Aug-08 09:59N 60°24' E 005°19'0 0.0
2017-Aug-08 09:29N 60°24' E 005°19'  
Track history (hours):
 
Tides and Currents Weather Stations Pressure Air Temp Water Temp Dewpoint Dewpoint Depression Visibility Wind Speed Wind Dir Waves Ship Positions

C0sta Favolosa

Last reported at 2017-Aug-18 09:15 UTC. Time now 2017-Aug-18 10:51 UTC.
Position N 54°11' E 012°06'.

Length 289 m; draft 8.3 m.

Type: Ship. MMSI: 247311100.

Date/timePositionNaut miles runAvg speedWind from/ knotsBaromVisibWave heightAir tempDewpointWater temp
2017-Aug-18 09:15N 54°11' E 012°06'0 0.0
2017-Aug-18 07:36N 54°11' E 012°06'0 0.2
2017-Aug-18 05:12N 54°10' E 012°06'1 3.4
2017-Aug-18 05:00N 54°10' E 012°06'6 6.5
2017-Aug-18 04:04N 54°15' E 012°02'1 7.7
2017-Aug-18 04:00N 54°15' E 012°01'714.1
2017-Aug-18 03:30N 54°19' E 011°51'918.0
2017-Aug-18 03:00N 54°25' E 011°39'918.3
2017-Aug-18 02:30N 54°29' E 011°26'918.1
2017-Aug-18 02:00N 54°34' E 011°12'917.7
2017-Aug-18 01:30N 54°39' E 010°59'815.6
2017-Aug-18 01:00N 54°45' E 010°52'815.9
2017-Aug-18 00:30N 54°53' E 010°52'816.2
2017-Aug-18 00:00N 54°59' E 011°01'816.6
2017-Aug-17 23:30N 55°08' E 011°02'714.5
2017-Aug-17 23:00N 55°15' E 011°05'612.0
2017-Aug-17 22:30N 55°20' E 011°02'611.5
2017-Aug-17 21:59N 55°26' E 010°58'612.7
2017-Aug-17 21:29N 55°31' E 010°51'611.8
2017-Aug-17 21:00N 55°36' E 010°48'611.4
2017-Aug-17 20:30N 55°42' E 010°47'611.3
2017-Aug-17 19:59N 55°48' E 010°48'611.2
2017-Aug-17 19:29N 55°53' E 010°53'511.6
2017-Aug-17 19:00N 55°57' E 010°60'510.4
2017-Aug-17 18:30N 56°02' E 010°59'713.6
2017-Aug-17 17:59N 56°03' E 010°47'813.3
2017-Aug-17 17:23N 56°05' E 010°33'1012.2
2017-Aug-17 16:35N 56°09' E 010°17'1 8.3
2017-Aug-17 16:29N 56°09' E 010°16'2 2.7
2017-Aug-17 15:56N 56°09' E 010°13'0 0.0
2017-Aug-17 13:23N 56°09' E 010°13'0 0.0
2017-Aug-17 12:59N 56°09' E 010°13'0 0.0
2017-Aug-17 12:29N 56°09' E 010°13'0 0.0
2017-Aug-17 11:59N 56°09' E 010°13'0 0.0
2017-Aug-17 11:23N 56°09' E 010°13'0 0.0
2017-Aug-17 10:56N 56°09' E 010°13'0 0.0
2017-Aug-17 10:26N 56°09' E 010°13'0 0.0
2017-Aug-17 09:56N 56°09' E 010°13'0 0.0
2017-Aug-17 06:47N 56°09' E 010°13'0 0.0
2017-Aug-17 06:27N 56°09' E 010°13'1 1.1
2017-Aug-17 05:50N 56°10' E 010°14'1 4.6
2017-Aug-17 05:30N 56°09' E 010°17'612.1
2017-Aug-17 05:00N 56°07' E 010°26'917.5
2017-Aug-17 04:30N 56°03' E 010°41'918.0
2017-Aug-17 04:00N 56°05' E 010°57'918.3
2017-Aug-17 03:30N 56°13' E 010°60'1018.4
2017-Aug-17 02:59N 56°23' E 011°05'917.5
2017-Aug-17 02:29N 56°29' E 011°15'918.9
2017-Aug-17 01:59N 56°35' E 011°29'1020.4
2017-Aug-17 01:30N 56°41' E 011°43'1018.7
2017-Aug-17 01:00N 56°49' E 011°51'1021.2
2017-Aug-17 00:31N 56°59' E 011°44'1020.8
2017-Aug-17 00:00N 57°09' E 011°36'1020.7
2017-Aug-16 23:31N 57°18' E 011°29'1020.4
2017-Aug-16 23:00N 57°28' E 011°22'1120.9
2017-Aug-16 22:30N 57°34' E 011°07'1021.0
2017-Aug-16 22:01N 57°42' E 010°55'1120.8
2017-Aug-16 21:30N 57°48' E 010°38'1121.5
2017-Aug-16 21:00N 57°49' E 010°19'1121.4
2017-Aug-16 20:30N 57°49' E 009°59'1121.7
2017-Aug-16 19:59N 57°51' E 009°37'1122.1
2017-Aug-16 19:29N 57°52' E 009°16'1122.1
2017-Aug-16 18:59N 57°53' E 008°56'1321.2
2017-Aug-16 18:20N 57°57' E 008°31'720.8
2017-Aug-16 18:00N 57°60' E 008°20'917.7
2017-Aug-16 17:30N 58°04' E 008°05'5 9.7
2017-Aug-16 17:00N 58°08' E 007°59'0 0.3
2017-Aug-16 16:30N 58°08' E 007°60'0 0.0
2017-Aug-16 16:00N 58°08' E 007°60'0 0.0
2017-Aug-16 15:30N 58°08' E 007°60'0 0.0
2017-Aug-16 15:00N 58°08' E 007°60'0 0.0
2017-Aug-16 14:30N 58°08' E 007°60'0 0.0
2017-Aug-16 14:00N 58°08' E 007°60'0 0.0
2017-Aug-16 13:30N 58°08' E 007°60'0 0.0
2017-Aug-16 13:00N 58°08' E 007°60'0 0.0
2017-Aug-16 12:30N 58°08' E 007°60'0 0.0
2017-Aug-16 11:59N 58°08' E 007°60'0 0.0
2017-Aug-16 11:29N 58°08' E 007°60'0 0.0
2017-Aug-16 10:59N 58°08' E 007°60'0 0.2
2017-Aug-16 10:29N 58°08' E 007°59'3 5.4
2017-Aug-16 10:00N 58°06' E 008°03'611.4
2017-Aug-16 09:30N 58°01' E 008°08'815.5
2017-Aug-16 09:00N 57°54' E 008°12'2213.8
2017-Aug-16 07:23N 57°42' E 007°37'717.7
2017-Aug-16 07:00N 57°42' E 007°24'918.1
2017-Aug-16 06:30N 57°42' E 007°07'917.9
2017-Aug-16 06:00N 57°43' E 006°51'918.0
2017-Aug-16 05:30N 57°44' E 006°34'918.7
2017-Aug-16 05:00N 57°49' E 006°20'1118.7
2017-Aug-16 04:26N 57°55' E 006°03'818.9
2017-Aug-16 04:00N 58°00' E 005°51'1319.3
2017-Aug-16 03:20N 58°09' E 005°34'819.1
2017-Aug-16 02:55N 58°14' E 005°22'818.3
2017-Aug-16 02:29N 58°20' E 005°13'918.4
2017-Aug-16 02:00N 58°28' E 005°06'918.0
2017-Aug-16 01:30N 58°36' E 004°58'918.3
2017-Aug-16 01:00N 58°45' E 004°51'918.5
2017-Aug-16 00:30N 58°53' E 004°44'918.3
2017-Aug-16 00:00N 59°02' E 004°36'917.9
2017-Aug-15 23:29N 59°10' E 004°29'5818.3
2017-Aug-15 20:19N 60°08' E 004°30'618.4
2017-Aug-15 20:00N 60°14' E 004°31'917.9
2017-Aug-15 19:30N 60°23' E 004°32'917.8
2017-Aug-15 19:00N 60°32' E 004°33'917.4
2017-Aug-15 18:30N 60°40' E 004°32'713.8
2017-Aug-15 18:00N 60°44' E 004°45'714.8
2017-Aug-15 17:30N 60°38' E 004°53'1019.4
2017-Aug-15 17:00N 60°28' E 005°00'714.5
2017-Aug-15 16:30N 60°23' E 005°10'5 9.1
2017-Aug-15 16:00N 60°24' E 005°19'0 0.1
2017-Aug-15 15:28N 60°24' E 005°19'0 0.0
2017-Aug-15 14:58N 60°24' E 005°19'0 0.0
2017-Aug-15 14:22N 60°24' E 005°19'0 0.0
2017-Aug-15 13:58N 60°24' E 005°19'0 0.0
2017-Aug-15 13:28N 60°24' E 005°19'0 0.0
2017-Aug-15 12:58N 60°24' E 005°19'0 0.0
2017-Aug-15 12:28N 60°24' E 005°19'0 0.0
2017-Aug-15 11:58N 60°24' E 005°19'0 0.0
2017-Aug-15 11:28N 60°24' E 005°19'0 0.0
2017-Aug-15 10:58N 60°24' E 005°19'0 0.0
2017-Aug-15 10:28N 60°24' E 005°19'0 0.0
2017-Aug-15 09:58N 60°24' E 005°19'0 0.0
2017-Aug-15 09:28N 60°24' E 005°19'0 0.0
2017-Aug-15 08:58N 60°24' E 005°19'0 0.0
2017-Aug-15 08:28N 60°24' E 005°19'0 0.0
2017-Aug-15 07:58N 60°24' E 005°19'0 0.0
2017-Aug-15 07:22N 60°24' E 005°19'0 0.0
2017-Aug-15 06:58N 60°24' E 005°19'0 0.0
2017-Aug-15 06:28N 60°24' E 005°19'0 0.0
2017-Aug-15 05:58N 60°24' E 005°19'0 0.2
2017-Aug-15 05:30N 60°24' E 005°19'3 6.6
2017-Aug-15 05:00N 60°24' E 005°12'611.1
2017-Aug-15 04:30N 60°26' E 005°02'916.9
2017-Aug-15 04:00N 60°34' E 004°55'816.8
2017-Aug-15 03:30N 60°41' E 004°48'816.7
2017-Aug-15 03:00N 60°46' E 004°34'918.1
2017-Aug-15 02:30N 60°53' E 004°24'918.0
2017-Aug-15 02:00N 61°02' E 004°17'4118.9
2017-Aug-14 23:49N 61°43' E 004°23'619.3
2017-Aug-14 23:30N 61°48' E 004°28'918.4
2017-Aug-14 22:59N 61°57' E 004°37'1019.4
2017-Aug-14 22:30N 62°05' E 004°46'1019.5
2017-Aug-14 22:00N 62°14' E 004°55'918.1
2017-Aug-14 21:29N 62°21' E 005°09'1019.6
2017-Aug-14 21:00N 62°27' E 005°25'918.1
2017-Aug-14 20:30N 62°30' E 005°43'918.5
2017-Aug-14 20:00N 62°26' E 006°01'713.7
2017-Aug-14 19:30N 62°23' E 006°14'1019.4
2017-Aug-14 19:00N 62°26' E 006°34'918.0
2017-Aug-14 18:30N 62°26' E 006°54'917.4
2017-Aug-14 18:00N 62°18' E 007°01'917.0
2017-Aug-14 17:30N 62°09' E 006°59'4 8.7
2017-Aug-14 17:00N 62°06' E 007°05'3 6.5
2017-Aug-14 16:30N 62°06' E 007°12'0 0.0
2017-Aug-14 16:00N 62°06' E 007°12'0 0.0
2017-Aug-14 15:30N 62°06' E 007°12'0 0.0
2017-Aug-14 13:07N 62°06' E 007°12'0 0.0
2017-Aug-14 13:00N 62°06' E 007°12'0 0.0
2017-Aug-14 12:30N 62°06' E 007°12'0 0.0
2017-Aug-14 12:00N 62°06' E 007°12'0 0.0
2017-Aug-14 11:28N 62°06' E 007°12'0 0.0
2017-Aug-14 10:58N 62°06' E 007°12'0 0.0
2017-Aug-14 10:30N 62°06' E 007°12'0 0.0
2017-Aug-14 09:58N 62°06' E 007°12'0 0.0
2017-Aug-14 09:28N 62°06' E 007°12'0 0.0
2017-Aug-14 08:58N 62°06' E 007°12'0 0.1
2017-Aug-14 08:30N 62°06' E 007°12'2 3.0
2017-Aug-14 08:00N 62°07' E 007°09'611.0
2017-Aug-14 07:30N 62°06' E 006°58'3 1.5
2017-Aug-14 05:41N 62°05' E 006°53'1 1.5
2017-Aug-14 05:18N 62°06' E 006°53'2 7.4
2017-Aug-14 05:00N 62°07' E 006°57'713.2
2017-Aug-14 04:30N 62°13' E 007°01'612.4
2017-Aug-14 04:00N 62°19' E 006°57'713.2
2017-Aug-14 03:30N 62°26' E 006°54'713.2
2017-Aug-14 03:00N 62°27' E 006°40'713.5
2017-Aug-14 02:30N 62°25' E 006°27'713.9
2017-Aug-14 02:00N 62°23' E 006°13'713.3
2017-Aug-14 01:30N 62°26' E 005°60'612.7
2017-Aug-14 00:59N 62°29' E 005°47'816.1
2017-Aug-14 00:30N 62°29' E 005°30'918.5
2017-Aug-14 00:00N 62°23' E 005°15'918.5
2017-Aug-13 23:30N 62°17' E 004°59'918.4
2017-Aug-13 23:00N 62°11' E 004°43'20217.6
2017-Aug-13 11:30N 58°50' E 004°32'918.4
2017-Aug-13 11:00N 58°43' E 004°44'1018.2
2017-Aug-13 10:26N 58°36' E 004°58'818.8
2017-Aug-13 10:00N 58°30' E 005°08'1020.4
2017-Aug-13 09:30N 58°23' E 005°22'1020.7
2017-Aug-13 09:00N 58°15' E 005°36'1020.9
2017-Aug-13 08:30N 58°08' E 005°51'1020.7
2017-Aug-13 08:00N 58°01' E 006°05'1020.5
2017-Aug-13 07:30N 57°54' E 006°20'1020.3
2017-Aug-13 07:00N 57°48' E 006°35'1020.6
2017-Aug-13 06:30N 57°47' E 006°54'1020.6
2017-Aug-13 06:00N 57°46' E 007°14'1020.6
2017-Aug-13 05:30N 57°46' E 007°33'1121.0
2017-Aug-13 05:00N 57°46' E 007°53'2620.1
2017-Aug-13 03:41N 57°47' E 008°43'419.5
2017-Aug-13 03:30N 57°47' E 008°49'1019.3
2017-Aug-13 03:00N 57°47' E 009°07'1019.2
2017-Aug-13 02:30N 57°48' E 009°25'1019.2
2017-Aug-13 01:59N 57°49' E 009°44'1419.5
2017-Aug-13 01:17N 57°50' E 010°09'518.8
2017-Aug-13 01:00N 57°50' E 010°19'917.2
2017-Aug-13 00:30N 57°50' E 010°36'816.1
2017-Aug-12 23:59N 57°48' E 010°50'917.5
2017-Aug-12 23:30N 57°42' E 011°02'917.7
2017-Aug-12 22:59N 57°36' E 011°14'918.1
2017-Aug-12 22:30N 57°29' E 011°26'918.2
2017-Aug-12 22:00N 57°21' E 011°32'918.4
2017-Aug-12 21:30N 57°12' E 011°38'918.1
2017-Aug-12 20:58N 57°03' E 011°43'5017.8
2017-Aug-12 18:09N 56°16' E 012°14'318.3
2017-Aug-12 18:00N 56°14' E 012°18'918.3
2017-Aug-12 17:30N 56°08' E 012°30'816.5
2017-Aug-12 17:00N 56°02' E 012°40'816.9
2017-Aug-12 16:30N 55°54' E 012°44'917.2
2017-Aug-12 16:00N 55°45' E 012°41'3 6.4
2017-Aug-12 15:29N 55°43' E 012°38'0 0.0
2017-Aug-12 14:59N 55°43' E 012°38'0 0.0
2017-Aug-12 14:28N 55°43' E 012°38'0 0.0
2017-Aug-12 14:00N 55°43' E 012°38'0 0.0
2017-Aug-12 13:29N 55°43' E 012°38'0 0.0
2017-Aug-12 12:58N 55°43' E 012°38'0 0.0
2017-Aug-12 12:28N 55°43' E 012°38'0 0.0
2017-Aug-12 11:57N 55°43' E 012°38'0 0.0
2017-Aug-12 11:30N 55°43' E 012°38'0 0.0
2017-Aug-12 10:58N 55°43' E 012°38'0 0.0
2017-Aug-12 10:30N 55°43' E 012°38'0 0.0
2017-Aug-12 10:00N 55°43' E 012°38'0 0.0
2017-Aug-12 09:30N 55°43' E 012°38'0 0.0
2017-Aug-12 09:00N 55°43' E 012°38'0 0.0
2017-Aug-12 08:30N 55°43' E 012°38'0 0.0
2017-Aug-12 08:00N 55°43' E 012°38'0 0.0
2017-Aug-12 07:30N 55°43' E 012°38'0 0.0
2017-Aug-12 07:00N 55°43' E 012°38'0 0.0
2017-Aug-12 06:30N 55°43' E 012°38'0 0.0
2017-Aug-12 06:00N 55°43' E 012°38'0 0.3
2017-Aug-12 05:31N 55°43' E 012°38'4 7.1
2017-Aug-12 05:00N 55°46' E 012°42'815.2
2017-Aug-12 04:30N 55°53' E 012°39'917.3
2017-Aug-12 04:00N 56°02' E 012°39'816.8
2017-Aug-12 03:30N 56°08' E 012°29'1418.4
2017-Aug-12 02:45N 56°13' E 012°05'1020.4
2017-Aug-12 02:15N 56°09' E 011°48'620.6
2017-Aug-12 01:57N 56°08' E 011°37'920.5
2017-Aug-12 01:29N 56°09' E 011°20'917.5
2017-Aug-12 00:58N 56°04' E 011°07'1020.0
2017-Aug-12 00:29N 55°55' E 010°58'1019.8
2017-Aug-11 23:59N 55°47' E 010°49'1020.4
2017-Aug-11 23:29N 55°37' E 010°48'1020.8
2017-Aug-11 23:00N 55°28' E 010°56'1019.5
2017-Aug-11 22:30N 55°19' E 011°03'918.5
2017-Aug-11 22:00N 55°10' E 011°03'1020.0
2017-Aug-11 21:30N 54°60' E 011°02'1019.3
2017-Aug-11 21:00N 54°51' E 010°53'918.8
2017-Aug-11 20:30N 54°42' E 010°54'1020.0
2017-Aug-11 20:00N 54°37' E 011°09'1020.8
2017-Aug-11 19:30N 54°32' E 011°25'1020.2
2017-Aug-11 19:00N 54°28' E 011°40'1020.1
2017-Aug-11 18:30N 54°23' E 011°56'1016.3
2017-Aug-11 17:53N 54°14' E 012°04'4 1.4
2017-Aug-11 15:11N 54°11' E 012°06'0 0.0
2017-Aug-11 14:59N 54°11' E 012°06'0 0.0
2017-Aug-11 14:26N 54°11' E 012°06'0 0.0
2017-Aug-11 13:20N 54°11' E 012°06'0 0.0
2017-Aug-11 12:17N 54°11' E 012°06'0 0.0
2017-Aug-11 11:41N 54°11' E 012°06'0 0.0
2017-Aug-11 11:29N 54°11' E 012°06'0 0.0
2017-Aug-11 08:14N 54°11' E 012°06'0 0.0
2017-Aug-11 07:53N 54°11' E 012°06'0 0.0
2017-Aug-11 07:23N 54°11' E 012°06'0 0.0
2017-Aug-11 06:59N 54°11' E 012°06'0 0.0
2017-Aug-11 06:20N 54°11' E 012°06'0 0.0
2017-Aug-11 05:59N 54°11' E 012°06'0 0.0
2017-Aug-11 05:30N 54°11' E 012°06'1 2.1
2017-Aug-11 05:00N 54°10' E 012°06'4 5.8
2017-Aug-11 04:23N 54°13' E 012°04'3 7.7
2017-Aug-11 04:00N 54°15' E 012°02'611.0
2017-Aug-11 03:30N 54°19' E 011°55'917.9
2017-Aug-11 03:00N 54°25' E 011°43'918.4
2017-Aug-11 02:30N 54°29' E 011°29'918.2
2017-Aug-11 02:00N 54°33' E 011°15'918.2
2017-Aug-11 01:30N 54°38' E 011°02'815.2
2017-Aug-11 01:00N 54°43' E 010°52'713.4
2017-Aug-11 00:31N 54°50' E 010°51'612.9
2017-Aug-11 00:01N 54°56' E 010°54'612.8
2017-Aug-10 23:30N 55°01' E 011°01'612.8
2017-Aug-10 23:00N 55°07' E 011°02'612.3
2017-Aug-10 22:31N 55°13' E 011°06'713.2
2017-Aug-10 22:00N 55°19' E 011°02'612.6
2017-Aug-10 21:31N 55°25' E 010°58'713.3
2017-Aug-10 21:00N 55°31' E 010°52'612.7
2017-Aug-10 20:30N 55°37' E 010°47'612.5
2017-Aug-10 19:59N 55°43' E 010°47'713.2
2017-Aug-10 19:29N 55°50' E 010°49'612.9
2017-Aug-10 19:00N 55°55' E 010°56'612.7
2017-Aug-10 18:30N 55°60' E 011°02'612.8
2017-Aug-10 17:59N 56°03' E 010°52'714.1
2017-Aug-10 17:30N 56°03' E 010°40'714.0
2017-Aug-10 17:00N 56°06' E 010°28'812.2
2017-Aug-10 16:19N 56°10' E 010°15'1 2.5
2017-Aug-10 15:56N 56°09' E 010°13'0 0.0
2017-Aug-10 15:29N 56°09' E 010°13'0 0.0
2017-Aug-10 14:44N 56°09' E 010°13'0 0.0
2017-Aug-10 14:29N 56°09' E 010°13'0 0.0
2017-Aug-10 13:38N 56°09' E 010°13'0 0.0
2017-Aug-10 13:14N 56°09' E 010°13'0 0.0
2017-Aug-10 12:56N 56°09' E 010°13'0 0.0
2017-Aug-10 12:29N 56°09' E 010°13'0 0.0
2017-Aug-10 11:59N 56°09' E 010°13'0 0.0
2017-Aug-10 11:17N 56°09' E 010°13'0 0.0
2017-Aug-10 10:53N 56°09' E 010°13'0 0.0
2017-Aug-10 08:23N 56°09' E 010°13'0 0.0
2017-Aug-10 07:50N 56°09' E 010°13'0 0.0
2017-Aug-10 07:29N 56°09' E 010°13'0 0.0
2017-Aug-10 06:39N 56°09' E 010°13'0 0.1
2017-Aug-10 06:28N 56°09' E 010°13'1 1.5
2017-Aug-10 06:00N 56°10' E 010°14'3 5.8
2017-Aug-10 05:30N 56°08' E 010°19'816.7
2017-Aug-10 05:00N 56°05' E 010°32'1019.0
2017-Aug-10 04:29N 56°03' E 010°50'816.9
2017-Aug-10 04:00N 56°09' E 010°59'5217.3
2017-Aug-10 01:01N 56°54' E 011°47'420.8
2017-Aug-10 00:50N 56°57' E 011°44'920.5
2017-Aug-10 00:25N 57°05' E 011°38'820.0
2017-Aug-10 00:00N 57°13' E 011°33'1020.0
2017-Aug-09 23:30N 57°22' E 011°27'1019.8
2017-Aug-09 23:00N 57°31' E 011°18'1020.6
2017-Aug-09 22:30N 57°39' E 011°05'1020.4
2017-Aug-09 22:00N 57°45' E 010°50'1020.0
2017-Aug-09 21:31N 57°50' E 010°34'1020.8
2017-Aug-09 21:00N 57°50' E 010°14'5521.0
2017-Aug-09 18:24N 57°57' E 008°32'820.2
2017-Aug-09 18:00N 57°60' E 008°18'917.4
2017-Aug-09 17:30N 58°05' E 008°04'5 8.8
2017-Aug-09 17:00N 58°08' E 007°60'0 0.1
2017-Aug-09 16:28N 58°08' E 007°60'0 0.0
2017-Aug-09 16:00N 58°08' E 007°60'0 0.0
2017-Aug-09 15:30N 58°08' E 007°60'0 0.0
2017-Aug-09 15:00N 58°08' E 007°60'0 0.0
2017-Aug-09 14:30N 58°08' E 007°60'0 0.0
2017-Aug-09 14:00N 58°08' E 007°60'0 0.0
2017-Aug-09 13:30N 58°08' E 007°60'0 0.0
2017-Aug-09 13:00N 58°08' E 007°60'0 0.0
2017-Aug-09 12:30N 58°08' E 007°60'0 0.0
2017-Aug-09 12:00N 58°08' E 007°60'0 0.0
2017-Aug-09 11:30N 58°08' E 007°60'0 0.0
2017-Aug-09 11:00N 58°08' E 007°60'0 0.0
2017-Aug-09 10:30N 58°08' E 007°60'1 2.3
2017-Aug-09 10:00N 58°08' E 008°01'611.6
2017-Aug-09 09:30N 58°03' E 008°08'612.4
2017-Aug-09 09:00N 57°57' E 008°11'816.2
2017-Aug-09 08:30N 57°49' E 008°06'1513.7
2017-Aug-09 07:26N 57°42' E 007°42'715.6
2017-Aug-09 07:00N 57°42' E 007°30'816.7
2017-Aug-09 06:30N 57°43' E 007°14'918.1
2017-Aug-09 06:00N 57°43' E 006°57'918.1
2017-Aug-09 05:29N 57°43' E 006°40'918.6
2017-Aug-09 05:00N 57°48' E 006°25'919.0
2017-Aug-09 04:30N 57°53' E 006°10'1018.8
2017-Aug-09 04:00N 57°59' E 005°56'918.9
2017-Aug-09 03:30N 58°05' E 005°43'1018.9
2017-Aug-09 03:00N 58°12' E 005°30'919.1
2017-Aug-09 02:30N 58°18' E 005°17'1019.6
2017-Aug-09 02:00N 58°26' E 005°07'1020.2
2017-Aug-09 01:30N 58°35' E 004°59'1019.7
2017-Aug-09 01:00N 58°44' E 004°51'1019.6
2017-Aug-09 00:30N 58°53' E 004°44'1019.4
2017-Aug-09 00:00N 59°02' E 004°36'919.0
2017-Aug-08 23:30N 59°11' E 004°28'5818.9
2017-Aug-08 20:27N 60°09' E 004°30'918.6
2017-Aug-08 20:00N 60°17' E 004°31'918.1
2017-Aug-08 19:30N 60°26' E 004°32'918.0
2017-Aug-08 18:59N 60°35' E 004°32'917.2
2017-Aug-08 18:30N 60°44' E 004°34'714.5
2017-Aug-08 17:59N 60°42' E 004°48'815.9
2017-Aug-08 17:30N 60°35' E 004°55'918.9
2017-Aug-08 17:00N 60°26' E 005°02'611.4
2017-Aug-08 16:30N 60°23' E 005°12'4 7.5
2017-Aug-08 16:00N 60°24' E 005°19'0 0.1
2017-Aug-08 15:31N 60°24' E 005°19'0 0.0
2017-Aug-08 15:01N 60°24' E 005°19'0 0.0
2017-Aug-08 14:31N 60°24' E 005°19'0 0.0
2017-Aug-08 14:01N 60°24' E 005°19'0 0.0
2017-Aug-08 13:31N 60°24' E 005°19'0 0.0
2017-Aug-08 13:01N 60°24' E 005°19'0 0.0
2017-Aug-08 12:30N 60°24' E 005°19'0 0.0
2017-Aug-08 12:01N 60°24' E 005°19'0 0.0
2017-Aug-08 11:30N 60°24' E 005°19'0 0.0
2017-Aug-08 10:59N 60°24' E 005°19'0 0.0
2017-Aug-08 10:29N 60°24' E 005°19'0 0.0
2017-Aug-08 09:59N 60°24' E 005°19'0 0.0
2017-Aug-08 09:29N 60°24' E 005°19'  

Dump ship's entire track history